Time;durP1;ratioP1;P1;durP2;ratioP2;P2;SDS_P1;SDS_P2;PMS_P1;PMS_P2;Temp;Humidity;BMP_temperature;BMP_pressure;BME280_temperature;BME280_humidity;BME280_pressure;Samples;Min_cycle;Max_cycle;Signal;HPM_P1;HPM_P2
2021/07/13 00:01:03;;;;;;;29.58;16.10;;;25.70;60.20;;;;;;6180639;28;83067;-68
2021/07/13 00:04:04;;;;;;;22.98;14.25;;;25.70;60.10;;;;;;6178975;28;84100;-67
2021/07/13 00:07:04;;;;;;;20.85;13.55;;;25.70;60.30;;;;;;6175860;28;83016;-71
2021/07/13 00:10:05;;;;;;;22.58;12.77;;;25.60;60.10;;;;;;6171982;28;84143;-68
2021/07/13 00:13:05;;;;;;;21.60;12.30;;;25.60;60.10;;;;;;6178891;28;83267;-68
2021/07/13 00:16:06;;;;;;;19.63;11.90;;;25.60;60.20;;;;;;6179825;28;84033;-68
2021/07/13 00:19:06;;;;;;;20.30;11.25;;;25.60;59.90;;;;;;6181427;28;88259;-67
2021/07/13 00:22:07;;;;;;;15.07;10.02;;;25.60;60.00;;;;;;6173365;28;84184;-68
2021/07/13 00:25:07;;;;;;;14.75;10.30;;;25.60;60.00;;;;;;6180267;28;84404;-67
2021/07/13 00:28:08;;;;;;;15.68;10.38;;;25.60;59.80;;;;;;6175592;28;84150;-67
2021/07/13 00:31:08;;;;;;;14.27;9.88;;;25.60;59.80;;;;;;6173883;28;83301;-67
2021/07/13 00:34:09;;;;;;;14.60;8.80;;;25.60;59.80;;;;;;6176255;28;82848;-68
2021/07/13 00:37:09;;;;;;;11.70;8.80;;;25.60;59.90;;;;;;6180874;28;80858;-69
2021/07/13 00:40:10;;;;;;;11.70;9.00;;;25.60;59.90;;;;;;6181818;28;83577;-68
2021/07/13 00:43:10;;;;;;;11.02;8.50;;;25.70;59.90;;;;;;6182845;28;81458;-68
2021/07/13 00:46:11;;;;;;;9.48;7.18;;;25.70;59.80;;;;;;6178547;28;80920;-68
2021/07/13 00:49:11;;;;;;;12.88;7.70;;;25.70;59.80;;;;;;6174348;28;80673;-68
2021/07/13 00:52:12;;;;;;;8.82;6.88;;;25.60;59.80;;;;;;6171271;28;81523;-69
2021/07/13 00:55:12;;;;;;;10.30;6.70;;;25.70;59.70;;;;;;6180296;28;81728;-68
2021/07/13 00:58:13;;;;;;;8.23;7.07;;;25.70;59.60;;;;;;6186333;28;80827;-69
2021/07/13 01:01:13;;;;;;;7.88;6.47;;;25.80;59.70;;;;;;6175161;28;80511;-70
2021/07/13 01:04:14;;;;;;;7.72;6.15;;;25.80;59.70;;;;;;6182325;28;81044;-68
2021/07/13 01:07:14;;;;;;;7.00;6.28;;;25.80;59.70;;;;;;6176885;28;80636;-69
2021/07/13 01:10:15;;;;;;;8.25;5.93;;;25.90;59.80;;;;;;6182826;28;83695;-68
2021/07/13 01:13:15;;;;;;;7.03;5.70;;;25.90;59.60;;;;;;6174162;28;80943;-69
2021/07/13 01:16:16;;;;;;;8.35;6.32;;;25.90;60.20;;;;;;6169394;28;80769;-69
2021/07/13 01:19:16;;;;;;;7.15;6.45;;;25.90;59.70;;;;;;6179355;28;81646;-69
2021/07/13 01:22:17;;;;;;;8.82;6.10;;;25.90;59.70;;;;;;6177756;28;80880;-68
2021/07/13 01:25:17;;;;;;;7.03;5.75;;;26.00;59.60;;;;;;6173427;28;81913;-69
2021/07/13 01:28:18;;;;;;;8.00;5.80;;;26.00;59.70;;;;;;6178093;28;82824;-68
2021/07/13 01:31:18;;;;;;;7.10;6.05;;;26.00;59.60;;;;;;6180450;28;80516;-68
2021/07/13 01:34:19;;;;;;;6.53;5.82;;;26.00;59.60;;;;;;6179807;28;81062;-68
2021/07/13 01:37:19;;;;;;;8.32;6.45;;;26.00;59.50;;;;;;6181418;28;80984;-71
2021/07/13 01:40:20;;;;;;;9.80;6.40;;;26.00;59.50;;;;;;6171525;28;81667;-69
2021/07/13 01:43:20;;;;;;;10.40;6.70;;;26.00;59.50;;;;;;6179003;28;82902;-69
2021/07/13 01:46:21;;;;;;;8.27;6.60;;;26.00;59.50;;;;;;6178378;28;80516;-69
2021/07/13 01:49:21;;;;;;;11.85;7.38;;;26.10;59.20;;;;;;6175281;28;89049;-69
2021/07/13 01:52:22;;;;;;;10.35;7.22;;;26.10;59.30;;;;;;6172816;28;81527;-69
2021/07/13 01:55:22;;;;;;;10.65;7.82;;;26.00;59.20;;;;;;6179735;28;80691;-69
2021/07/13 01:58:23;;;;;;;14.48;7.60;;;26.10;59.30;;;;;;6182223;28;80294;-69
2021/07/13 02:01:23;;;;;;;12.15;7.78;;;26.00;59.20;;;;;;6176773;28;80569;-69
2021/07/13 02:04:24;;;;;;;10.73;7.38;;;26.00;59.40;;;;;;6180850;28;80505;-69
2021/07/13 02:07:24;;;;;;;10.63;7.40;;;26.00;59.30;;;;;;6165639;28;81254;-69
2021/07/13 02:10:25;;;;;;;12.13;7.97;;;26.00;59.30;;;;;;6172611;28;80289;-69
2021/07/13 02:13:25;;;;;;;11.48;7.53;;;26.00;59.30;;;;;;6179729;28;80870;-68
2021/07/13 02:16:26;;;;;;;11.05;7.22;;;26.00;59.20;;;;;;6177348;28;80378;-68
2021/07/13 02:19:27;;;;;;;13.50;8.27;;;26.00;58.90;;;;;;6180352;28;82702;-68
2021/07/13 02:22:28;;;;;;;12.30;8.07;;;26.10;59.00;;;;;;6172572;28;81676;-69
2021/07/13 02:25:28;;;;;;;13.73;8.63;;;26.00;58.80;;;;;;6176167;28;80348;-68
2021/07/13 02:28:30;;;;;;;12.40;8.18;;;26.00;59.10;;;;;;6179710;28;81506;-69
2021/07/13 02:31:30;;;;;;;12.73;7.32;;;26.00;59.00;;;;;;6178960;28;80953;-69
2021/07/13 02:34:31;;;;;;;11.52;8.00;;;26.00;59.00;;;;;;6180948;28;80330;-68
2021/07/13 02:37:31;;;;;;;11.52;7.55;;;26.00;59.20;;;;;;6179349;28;87652;-69
2021/07/13 02:40:32;;;;;;;12.07;7.93;;;26.00;59.10;;;;;;6169708;28;80239;-68
2021/07/13 02:43:32;;;;;;;12.75;8.25;;;26.00;59.20;;;;;;6172860;28;81923;-68
2021/07/13 02:46:33;;;;;;;11.30;7.45;;;26.00;59.00;;;;;;6181921;28;80368;-69
2021/07/13 02:49:33;;;;;;;13.05;9.57;;;26.00;58.90;;;;;;6175026;28;81501;-68
2021/07/13 02:52:34;;;;;;;16.02;10.55;;;26.00;59.00;;;;;;6180939;28;81493;-69
2021/07/13 02:55:34;;;;;;;14.07;9.02;;;26.00;59.00;;;;;;6177332;28;83210;-69
2021/07/13 02:58:35;;;;;;;16.38;9.15;;;26.00;59.10;;;;;;6172878;28;81821;-70
2021/07/13 03:01:35;;;;;;;11.63;8.60;;;26.00;59.00;;;;;;6178620;28;81243;-69
2021/07/13 03:04:36;;;;;;;15.48;10.68;;;26.00;59.20;;;;;;6184330;28;81642;-69
2021/07/13 03:07:36;;;;;;;17.88;9.85;;;25.90;59.10;;;;;;6177634;28;84066;-69
2021/07/13 03:10:37;;;;;;;18.25;12.70;;;26.00;59.30;;;;;;6172406;28;83158;-69
2021/07/13 03:13:37;;;;;;;17.88;10.27;;;25.90;59.20;;;;;;6180763;28;83084;-69
2021/07/13 03:16:38;;;;;;;20.25;11.00;;;25.90;59.20;;;;;;6172013;28;83893;-69
2021/07/13 03:19:38;;;;;;;17.13;10.88;;;26.00;59.20;;;;;;6176226;28;83285;-69
2021/07/13 03:22:39;;;;;;;17.42;10.63;;;26.00;59.30;;;;;;6182082;28;82807;-69
2021/07/13 03:25:39;;;;;;;15.20;10.52;;;25.90;59.30;;;;;;6181757;28;83510;-68
2021/07/13 03:28:40;;;;;;;13.20;9.18;;;25.90;59.40;;;;;;6179466;28;82962;-69
2021/07/13 03:31:40;;;;;;;14.98;10.55;;;25.90;59.30;;;;;;6175421;28;83982;-68
2021/07/13 03:34:41;;;;;;;12.77;9.38;;;25.90;59.30;;;;;;6168448;28;84017;-69
2021/07/13 03:37:41;;;;;;;15.32;9.57;;;25.90;59.30;;;;;;6181805;28;81701;-69
2021/07/13 03:40:42;;;;;;;14.77;9.13;;;25.90;59.30;;;;;;6183853;28;80760;-70
2021/07/13 03:43:42;;;;;;;11.77;8.90;;;25.90;59.40;;;;;;6173295;28;80645;-68
2021/07/13 03:46:43;;;;;;;12.73;9.02;;;25.90;59.40;;;;;;6182527;28;80167;-68
2021/07/13 03:49:43;;;;;;;13.27;9.35;;;26.00;59.70;;;;;;6180376;28;80726;-67
2021/07/13 03:52:44;;;;;;;13.55;8.55;;;26.00;59.70;;;;;;6183571;28;80297;-68
2021/07/13 03:55:44;;;;;;;14.98;9.30;;;26.00;59.90;;;;;;6183187;28;80491;-68
2021/07/13 03:58:45;;;;;;;14.70;9.80;;;26.00;59.90;;;;;;6182259;28;80679;-68
2021/07/13 04:01:45;;;;;;;13.25;9.30;;;26.00;60.00;;;;;;6179512;28;80503;-68
2021/07/13 04:04:46;;;;;;;14.30;8.75;;;26.00;60.10;;;;;;6179488;28;80103;-66
2021/07/13 04:07:46;;;;;;;11.88;8.52;;;26.00;60.20;;;;;;6178121;28;81239;-66
2021/07/13 04:10:47;;;;;;;14.35;9.13;;;26.00;60.50;;;;;;6194579;28;82067;-68
2021/07/13 04:13:47;;;;;;;12.60;9.65;;;26.00;60.10;;;;;;6174314;28;83494;-68
2021/07/13 04:16:48;;;;;;;18.42;9.98;;;26.00;60.20;;;;;;6176414;28;80292;-68
2021/07/13 04:19:48;;;;;;;13.88;10.32;;;26.00;60.30;;;;;;6181269;28;85037;-69
2021/07/13 04:22:49;;;;;;;16.13;10.48;;;26.00;60.70;;;;;;6177182;28;85590;-69
2021/07/13 04:25:50;;;;;;;15.52;10.43;;;26.00;60.50;;;;;;6169806;28;86051;-68
2021/07/13 04:28:50;;;;;;;19.83;10.60;;;26.00;60.60;;;;;;6171488;28;83276;-68
2021/07/13 04:31:51;;;;;;;14.07;10.40;;;26.00;60.90;;;;;;6176818;28;83389;-68
2021/07/13 04:34:51;;;;;;;19.25;10.25;;;26.00;61.10;;;;;;6177580;28;83193;-68
2021/07/13 04:37:52;;;;;;;15.02;10.23;;;26.10;61.80;;;;;;6179858;28;82885;-69
2021/07/13 04:40:52;;;;;;;24.45;11.20;;;26.10;61.80;;;;;;6179515;28;83481;-67
2021/07/13 04:43:53;;;;;;;15.27;11.77;;;26.10;61.80;;;;;;6166368;28;83328;-69
2021/07/13 04:46:54;;;;;;;20.70;10.90;;;26.10;61.40;;;;;;6164407;28;82976;-75
2021/07/13 04:49:55;;;;;;;18.40;10.73;;;26.10;61.60;;;;;;6176703;28;83867;-70
2021/07/13 04:52:55;;;;;;;14.88;9.85;;;26.10;61.60;;;;;;6176545;28;83917;-71
2021/07/13 04:55:56;;;;;;;14.25;10.10;;;26.10;61.90;;;;;;6180784;28;81618;-68
2021/07/13 04:58:56;;;;;;;13.18;10.43;;;26.10;61.80;;;;;;6177479;28;83297;-74
2021/07/13 05:01:57;;;;;;;18.40;10.40;;;26.10;61.80;;;;;;6173543;28;85867;-71
2021/07/13 05:04:57;;;;;;;15.27;10.88;;;26.10;61.80;;;;;;6174757;28;83559;-70
2021/07/13 05:07:58;;;;;;;16.23;10.82;;;26.10;61.80;;;;;;6169771;28;83013;-72
2021/07/13 05:10:58;;;;;;;16.50;9.65;;;26.10;61.70;;;;;;6175414;28;84013;-71
2021/07/13 05:13:59;;;;;;;13.13;9.93;;;26.10;61.80;;;;;;6183853;28;82964;-71
2021/07/13 05:16:59;;;;;;;15.50;10.15;;;26.10;62.20;;;;;;6169580;28;80445;-70
2021/07/13 05:20:00;;;;;;;17.75;11.98;;;26.10;61.50;;;;;;6169997;28;85708;-70
2021/07/13 05:23:06;;;;;;;17.50;12.35;;;26.10;61.70;;;;;;6167972;28;83309;-68
2021/07/13 05:26:07;;;;;;;20.67;13.00;;;26.10;62.20;;;;;;6170833;28;83258;-70
2021/07/13 05:29:07;;;;;;;24.10;14.93;;;26.10;62.20;;;;;;6173845;28;82939;-71
2021/07/13 05:32:08;;;;;;;26.40;15.70;;;26.10;62.20;;;;;;6169641;28;84310;-71
2021/07/13 05:35:08;;;;;;;23.48;13.55;;;26.20;62.60;;;;;;6161091;28;84091;-72
2021/07/13 05:38:09;;;;;;;20.38;13.00;;;26.10;62.60;;;;;;6163732;28;82836;-68
2021/07/13 05:41:09;;;;;;;19.33;12.57;;;26.00;62.30;;;;;;6160794;28;83699;-70
2021/07/13 05:44:10;;;;;;;16.90;11.23;;;26.00;62.30;;;;;;6169765;28;83632;-69
2021/07/13 05:47:10;;;;;;;17.30;11.40;;;26.00;62.20;;;;;;6160071;28;84310;-68
2021/07/13 05:50:11;;;;;;;16.15;11.55;;;26.00;62.10;;;;;;6163701;28;83250;-68
2021/07/13 05:53:11;;;;;;;16.08;10.65;;;26.00;62.10;;;;;;6178248;28;82909;-67
2021/07/13 05:56:12;;;;;;;15.63;10.43;;;26.00;62.50;;;;;;6173103;28;83996;-68
2021/07/13 05:59:13;;;;;;;13.57;11.25;;;26.00;62.40;;;;;;6177778;28;83482;-67
2021/07/13 06:02:13;;;;;;;15.82;10.43;;;26.10;62.90;;;;;;6178269;28;82801;-67
2021/07/13 06:05:14;;;;;;;17.13;11.13;;;26.10;62.90;;;;;;6179555;28;83137;-67
2021/07/13 06:08:14;;;;;;;14.45;10.25;;;26.10;62.70;;;;;;6179331;28;83682;-68
2021/07/13 06:11:15;;;;;;;13.90;10.57;;;26.10;63.00;;;;;;6176227;28;83130;-67
2021/07/13 06:14:15;;;;;;;13.20;10.25;;;26.10;62.70;;;;;;6189285;28;84176;-68
2021/07/13 06:17:16;;;;;;;15.18;9.88;;;26.10;62.50;;;;;;6177216;28;88781;-65
2021/07/13 06:20:16;;;;;;;12.75;9.85;;;26.10;62.20;;;;;;6182557;28;81636;-64
2021/07/13 06:23:17;;;;;;;15.73;10.25;;;26.10;62.30;;;;;;6172969;28;80932;-64
2021/07/13 06:26:17;;;;;;;13.15;10.00;;;26.10;62.60;;;;;;6165376;28;83880;-65
2021/07/13 06:29:18;;;;;;;17.75;10.45;;;26.10;62.50;;;;;;6165870;28;82794;-68
2021/07/13 06:32:19;;;;;;;11.30;9.38;;;26.10;62.60;;;;;;6168198;28;83292;-67
2021/07/13 06:35:19;;;;;;;12.52;9.55;;;26.10;62.80;;;;;;6184459;28;85775;-66
2021/07/13 06:38:20;;;;;;;17.83;9.13;;;26.10;62.90;;;;;;6181441;28;80426;-66
2021/07/13 06:41:20;;;;;;;14.55;10.57;;;26.10;62.80;;;;;;6182921;28;81108;-66
2021/07/13 06:44:21;;;;;;;17.20;10.88;;;26.10;63.10;;;;;;6175295;28;82918;-67
2021/07/13 06:47:21;;;;;;;11.30;9.93;;;26.10;63.10;;;;;;6173462;28;83427;-66
2021/07/13 06:50:22;;;;;;;11.07;9.43;;;26.10;63.70;;;;;;6172775;28;84233;-66
2021/07/13 06:53:23;;;;;;;15.05;10.02;;;26.10;63.60;;;;;;6181729;28;80435;-67
2021/07/13 06:56:23;;;;;;;12.63;9.98;;;26.10;62.50;;;;;;6169661;28;83434;-67
2021/07/13 06:59:24;;;;;;;13.63;9.55;;;26.10;63.40;;;;;;6177197;28;83139;-66
2021/07/13 07:02:24;;;;;;;12.73;9.15;;;26.10;63.60;;;;;;6171381;28;85643;-66
2021/07/13 07:05:25;;;;;;;12.52;9.65;;;26.20;63.10;;;;;;6171870;28;80469;-66
2021/07/13 07:08:25;;;;;;;11.65;10.10;;;26.10;63.90;;;;;;6173973;28;81211;-67
2021/07/13 07:11:26;;;;;;;12.45;9.68;;;26.20;64.20;;;;;;6176646;28;84224;-67
2021/07/13 07:14:26;;;;;;;10.00;8.90;;;26.20;63.90;;;;;;6176749;28;83984;-66
2021/07/13 07:17:27;;;;;;;15.55;10.75;;;26.20;64.50;;;;;;6174026;28;82226;-66
2021/07/13 07:20:27;;;;;;;10.68;9.25;;;26.20;64.40;;;;;;6170625;28;85352;-66
2021/07/13 07:23:28;;;;;;;12.55;9.65;;;26.20;63.80;;;;;;6167725;28;85921;-66
2021/07/13 07:26:28;;;;;;;15.73;10.27;;;26.20;63.30;;;;;;6187411;28;81665;-66
2021/07/13 07:29:29;;;;;;;12.18;9.32;;;26.20;64.10;;;;;;6165797;28;82921;-65
2021/07/13 07:32:29;;;;;;;12.65;9.52;;;26.30;64.00;;;;;;6179246;28;81789;-67
2021/07/13 07:35:30;;;;;;;12.85;9.88;;;26.30;64.10;;;;;;6185305;28;80383;-66
2021/07/13 07:38:30;;;;;;;14.48;10.00;;;26.30;64.40;;;;;;6178680;28;80580;-67
2021/07/13 07:41:31;;;;;;;11.85;9.52;;;26.30;64.40;;;;;;6177914;28;82957;-66
2021/07/13 07:44:31;;;;;;;10.48;9.38;;;26.30;64.30;;;;;;6183460;28;82875;-68
2021/07/13 07:47:32;;;;;;;17.65;10.50;;;26.30;64.20;;;;;;6186339;28;81127;-67
2021/07/13 07:50:32;;;;;;;21.85;11.18;;;26.30;64.50;;;;;;6175252;28;83363;-66
2021/07/13 07:53:33;;;;;;;14.80;9.98;;;26.30;63.90;;;;;;6179608;28;83178;-66
2021/07/13 07:56:33;;;;;;;17.42;11.43;;;26.30;64.00;;;;;;6181749;28;84641;-66
2021/07/13 07:59:34;;;;;;;14.35;12.40;;;26.30;65.10;;;;;;6171343;28;83536;-66
2021/07/13 08:02:34;;;;;;;15.65;12.50;;;26.30;65.80;;;;;;6167932;28;84077;-67
2021/07/13 08:05:37;;;;;;;18.35;12.95;;;26.30;66.10;;;;;;6174136;28;83182;-65
2021/07/13 08:08:37;;;;;;;20.08;12.85;;;26.30;65.90;;;;;;6180385;28;83453;-65
2021/07/13 08:11:38;;;;;;;16.02;12.27;;;26.30;65.50;;;;;;6180429;28;83571;-65
2021/07/13 08:14:39;;;;;;;17.23;12.82;;;26.30;65.10;;;;;;6179962;28;83615;-65
2021/07/13 08:17:41;;;;;;;16.88;12.27;;;26.30;65.20;;;;;;6179744;28;83573;-64
2021/07/13 08:20:41;;;;;;;15.13;12.52;;;26.30;65.80;;;;;;6168602;28;83204;-66
2021/07/13 08:23:42;;;;;;;21.15;13.27;;;26.30;65.40;;;;;;6175337;28;83156;-66
2021/07/13 08:26:42;;;;;;;17.92;14.23;;;26.40;65.20;;;;;;6179068;28;84098;-67
2021/07/13 08:29:43;;;;;;;20.35;14.73;;;26.40;65.80;;;;;;6179258;28;82934;-67
2021/07/13 08:32:43;;;;;;;20.10;14.88;;;26.40;66.30;;;;;;6174916;28;83002;-67
2021/07/13 08:35:44;;;;;;;20.08;14.02;;;26.30;66.50;;;;;;6179669;28;84041;-66
2021/07/13 08:38:44;;;;;;;21.05;13.80;;;26.30;66.90;;;;;;6177960;28;83135;-67
2021/07/13 08:41:45;;;;;;;17.48;13.65;;;26.40;66.90;;;;;;6180399;28;84034;-67
2021/07/13 08:44:45;;;;;;;15.98;14.25;;;26.40;66.90;;;;;;6167805;28;83121;-67
2021/07/13 08:47:46;;;;;;;18.52;15.10;;;26.40;67.10;;;;;;6168652;28;84346;-67
2021/07/13 08:50:46;;;;;;;20.00;15.13;;;26.40;67.30;;;;;;6173545;28;83160;-67
2021/07/13 08:53:47;;;;;;;21.75;14.20;;;26.40;67.10;;;;;;6167453;28;82840;-67
2021/07/13 08:56:48;;;;;;;17.42;13.55;;;26.40;66.90;;;;;;6160492;28;84902;-65
2021/07/13 08:59:48;;;;;;;19.05;14.75;;;26.40;67.00;;;;;;6167388;28;82868;-66
2021/07/13 09:02:49;;;;;;;17.45;13.63;;;26.40;66.30;;;;;;6175237;28;82895;-66
2021/07/13 09:05:49;;;;;;;20.27;14.55;;;26.40;66.80;;;;;;6177505;28;83493;-67
2021/07/13 09:08:50;;;;;;;16.38;13.52;;;26.40;66.90;;;;;;6169013;28;84641;-67
2021/07/13 09:11:50;;;;;;;20.55;15.15;;;26.40;66.90;;;;;;6171885;28;83661;-67
2021/07/13 09:14:51;;;;;;;18.48;15.75;;;26.40;66.50;;;;;;6168762;28;85720;-67
2021/07/13 09:17:51;;;;;;;20.10;14.95;;;26.40;66.60;;;;;;6167600;28;83225;-67
2021/07/13 09:20:52;;;;;;;21.50;14.57;;;26.40;67.50;;;;;;6173321;28;82933;-66
2021/07/13 09:23:52;;;;;;;18.67;15.48;;;26.40;67.60;;;;;;6170514;28;84018;-67
2021/07/13 09:26:53;;;;;;;15.90;13.80;;;26.50;68.00;;;;;;6169714;28;83807;-67
2021/07/13 09:29:54;;;;;;;21.77;15.32;;;26.50;67.60;;;;;;6176001;28;82886;-67
2021/07/13 09:32:54;;;;;;;19.63;15.13;;;26.50;67.80;;;;;;6176772;28;83083;-66
2021/07/13 09:35:55;;;;;;;20.77;15.13;;;26.60;68.10;;;;;;6173127;28;84250;-67
2021/07/13 09:38:55;;;;;;;21.70;14.40;;;26.60;68.20;;;;;;6168970;28;84123;-66
2021/07/13 09:41:56;;;;;;;16.33;13.68;;;26.60;68.40;;;;;;6170399;28;83444;-66
2021/07/13 09:44:56;;;;;;;19.90;14.32;;;26.60;68.90;;;;;;6171314;28;83327;-67
2021/07/13 09:47:57;;;;;;;16.65;14.85;;;26.70;69.20;;;;;;6165288;28;83984;-66
2021/07/13 09:50:59;;;;;;;15.65;13.18;;;26.70;69.10;;;;;;6167267;28;82985;-66
2021/07/13 09:54:00;;;;;;;18.73;14.60;;;26.60;69.00;;;;;;6172854;28;83908;-66
2021/07/13 09:57:00;;;;;;;19.42;14.32;;;26.60;68.90;;;;;;6176187;28;83459;-67
2021/07/13 10:00:01;;;;;;;17.92;14.00;;;26.70;68.90;;;;;;6172803;28;84161;-66
2021/07/13 10:03:02;;;;;;;20.70;14.50;;;26.70;69.20;;;;;;6166395;28;82964;-67
2021/07/13 10:06:02;;;;;;;17.23;14.10;;;26.70;68.50;;;;;;6176728;28;83203;-68
2021/07/13 10:09:07;;;;;;;15.95;14.27;;;26.70;68.40;;;;;;6173161;28;85408;-67
2021/07/13 10:12:09;;;;;;;22.48;16.50;;;26.70;67.80;;;;;;6171416;28;83860;-67
2021/07/13 10:15:09;;;;;;;15.32;13.75;;;26.70;67.60;;;;;;6175142;28;82851;-66
2021/07/13 10:18:10;;;;;;;16.70;12.93;;;26.70;67.70;;;;;;6168140;28;83047;-66
2021/07/13 10:21:10;;;;;;;17.58;14.70;;;26.70;67.30;;;;;;6173539;28;83510;-67
2021/07/13 10:24:11;;;;;;;16.10;14.32;;;26.70;68.10;;;;;;6176681;28;83625;-67
2021/07/13 10:27:11;;;;;;;16.60;14.77;;;26.70;67.60;;;;;;6174025;28;84309;-65
2021/07/13 10:30:12;;;;;;;19.10;14.20;;;26.70;67.70;;;;;;6174194;28;83194;-67
2021/07/13 10:33:12;;;;;;;18.75;14.93;;;26.70;68.20;;;;;;6166552;28;83356;-66
2021/07/13 10:36:13;;;;;;;16.77;14.20;;;26.70;68.10;;;;;;6172120;28;83293;-68
2021/07/13 10:39:13;;;;;;;15.48;13.20;;;26.70;68.30;;;;;;6178123;28;82991;-67
2021/07/13 10:42:14;;;;;;;16.75;13.07;;;26.70;67.90;;;;;;6176796;28;85553;-67
2021/07/13 10:45:14;;;;;;;15.85;12.63;;;26.70;68.40;;;;;;6177492;28;83029;-67
2021/07/13 10:48:19;;;;;;;19.55;14.85;;;26.70;68.20;;;;;;6170012;28;83736;-67
2021/07/13 10:51:19;;;;;;;19.05;13.32;;;26.80;67.40;;;;;;6173070;28;82933;-66
2021/07/13 10:54:20;;;;;;;18.27;13.07;;;26.70;66.60;;;;;;6183166;28;83511;-66
2021/07/13 10:57:21;;;;;;;18.08;13.45;;;26.80;66.80;;;;;;6173361;28;84305;-66
2021/07/13 11:00:21;;;;;;;14.52;13.00;;;26.80;66.40;;;;;;6167723;28;83055;-65
2021/07/13 11:03:22;;;;;;;16.60;13.45;;;26.80;66.10;;;;;;6164664;28;83097;-66
2021/07/13 11:06:22;;;;;;;14.18;12.65;;;26.70;65.90;;;;;;6167570;28;83595;-67
2021/07/13 11:09:23;;;;;;;16.40;13.70;;;26.80;65.50;;;;;;6169139;28;83886;-66
2021/07/13 11:12:24;;;;;;;19.27;14.32;;;26.80;65.50;;;;;;6168029;28;83726;-66
2021/07/13 11:15:24;;;;;;;18.10;14.50;;;26.80;66.00;;;;;;6171055;28;83347;-66
2021/07/13 11:18:25;;;;;;;17.38;14.68;;;26.80;66.00;;;;;;6164729;28;83068;-65
2021/07/13 11:21:25;;;;;;;17.20;15.40;;;26.70;66.30;;;;;;6169439;28;83219;-66
2021/07/13 11:24:26;;;;;;;16.60;14.63;;;26.70;66.70;;;;;;6169733;28;83230;-66
2021/07/13 11:27:27;;;;;;;19.63;14.20;;;26.80;66.80;;;;;;6172878;28;83409;-66
2021/07/13 11:30:27;;;;;;;15.48;13.90;;;26.80;66.90;;;;;;6174367;28;85625;-66
2021/07/13 11:33:28;;;;;;;17.20;14.85;;;26.90;66.00;;;;;;6171561;28;82977;-66
2021/07/13 11:36:28;;;;;;;18.67;13.45;;;26.90;66.00;;;;;;6170671;28;83425;-65
2021/07/13 11:39:30;;;;;;;16.10;13.63;;;26.90;65.80;;;;;;6175017;28;85974;-65
2021/07/13 11:42:30;;;;;;;13.70;12.30;;;26.90;65.60;;;;;;6170861;28;84401;-65
2021/07/13 11:45:31;;;;;;;18.98;12.73;;;27.00;63.30;;;;;;6172612;28;85486;-66
2021/07/13 11:48:31;;;;;;;19.45;12.82;;;27.00;63.00;;;;;;6179487;28;83483;-66
2021/07/13 11:51:32;;;;;;;17.13;11.93;;;27.10;63.20;;;;;;6170961;28;83694;-66
2021/07/13 11:54:33;;;;;;;13.95;10.93;;;27.00;61.20;;;;;;6172894;28;85725;-66
2021/07/13 11:57:33;;;;;;;12.13;10.88;;;27.10;60.30;;;;;;6174358;28;82930;-66
2021/07/13 12:00:34;;;;;;;14.57;11.63;;;27.10;60.90;;;;;;6177367;28;84286;-65
2021/07/13 12:03:34;;;;;;;13.10;10.88;;;27.10;60.30;;;;;;6169003;28;83202;-67
2021/07/13 12:06:35;;;;;;;16.90;11.18;;;27.10;60.70;;;;;;6170822;28;84889;-67
2021/07/13 12:09:35;;;;;;;14.38;11.73;;;27.20;59.20;;;;;;6164708;28;83274;-66
2021/07/13 12:12:38;;;;;;;12.32;11.05;;;27.20;59.60;;;;;;6174348;28;83804;-68
2021/07/13 12:15:39;;;;;;;11.65;10.25;;;27.10;58.60;;;;;;6175028;28;83339;-65
2021/07/13 12:18:39;;;;;;;11.85;10.57;;;27.10;58.10;;;;;;6164836;28;83176;-66
2021/07/13 12:21:40;;;;;;;14.25;11.93;;;27.20;59.20;;;;;;6161867;28;85449;-66
2021/07/13 12:24:40;;;;;;;12.10;10.52;;;27.20;58.60;;;;;;6167625;28;84350;-66
2021/07/13 12:27:41;;;;;;;13.38;11.32;;;27.20;58.80;;;;;;6179248;28;84136;-66
2021/07/13 12:30:41;;;;;;;12.38;10.75;;;27.30;59.30;;;;;;6172095;28;83332;-65
2021/07/13 12:33:42;;;;;;;12.77;11.40;;;27.20;59.00;;;;;;6179363;28;84233;-66
2021/07/13 12:36:42;;;;;;;12.73;11.07;;;27.20;59.40;;;;;;6176805;28;83602;-67
2021/07/13 12:39:43;;;;;;;16.50;12.82;;;27.10;59.50;;;;;;6170980;28;83538;-67
2021/07/13 12:42:45;;;;;;;13.70;11.63;;;27.10;59.70;;;;;;6178128;28;82718;-67
2021/07/13 12:45:46;;;;;;;14.02;12.00;;;27.10;59.60;;;;;;6178147;28;82835;-66
2021/07/13 12:48:46;;;;;;;13.23;11.82;;;27.00;59.40;;;;;;6177659;28;83377;-65
2021/07/13 12:51:47;;;;;;;13.00;11.60;;;27.10;59.60;;;;;;6173288;28;82776;-66
2021/07/13 12:54:47;;;;;;;14.88;11.43;;;27.10;60.20;;;;;;6164788;28;83860;-64
2021/07/13 12:57:48;;;;;;;13.75;11.80;;;27.10;60.50;;;;;;6173627;28;82918;-66
2021/07/13 13:00:48;;;;;;;14.63;11.75;;;27.10;61.30;;;;;;6163991;28;84201;-66
2021/07/13 13:03:50;;;;;;;16.67;11.43;;;27.20;59.90;;;;;;6176332;28;83359;-65
2021/07/13 13:06:51;;;;;;;13.20;11.80;;;27.20;60.30;;;;;;6168987;28;85582;-66
2021/07/13 13:09:51;;;;;;;13.82;11.07;;;27.20;60.50;;;;;;6172438;28;83246;-66
2021/07/13 13:12:52;;;;;;;16.05;11.93;;;27.20;60.70;;;;;;6180801;28;82878;-66
2021/07/13 13:15:52;;;;;;;12.75;11.30;;;27.20;61.60;;;;;;6174930;28;83362;-65
2021/07/13 13:18:54;;;;;;;11.98;10.68;;;27.30;60.60;;;;;;6171748;28;83455;-65
2021/07/13 13:21:55;;;;;;;13.32;11.35;;;27.30;59.90;;;;;;6175270;28;83930;-65
2021/07/13 13:24:55;;;;;;;13.88;11.05;;;27.30;60.40;;;;;;6180211;28;83012;-66
2021/07/13 13:27:56;;;;;;;13.38;10.52;;;27.30;61.10;;;;;;6168435;28;84263;-66
2021/07/13 13:30:56;;;;;;;12.30;10.10;;;27.30;61.00;;;;;;6176559;28;89526;-66
2021/07/13 13:33:57;;;;;;;12.38;10.90;;;27.20;61.00;;;;;;6169155;28;83962;-65
2021/07/13 13:37:05;;;;;;;15.73;10.20;;;27.20;59.80;;;;;;6181484;28;84250;-66
2021/07/13 13:40:06;;;;;;;11.85;9.95;;;27.20;60.60;;;;;;6182989;28;83494;-65
2021/07/13 13:43:06;;;;;;;11.73;10.25;;;27.20;59.70;;;;;;6177636;28;83524;-66
2021/07/13 13:46:07;;;;;;;12.48;10.18;;;27.10;60.20;;;;;;6164359;28;82818;-67
2021/07/13 13:49:07;;;;;;;11.50;9.80;;;27.10;60.10;;;;;;6180145;28;83431;-65
2021/07/13 13:52:08;;;;;;;11.15;9.07;;;27.20;60.00;;;;;;6176075;28;84544;-66
2021/07/13 13:55:08;;;;;;;15.57;10.50;;;27.20;60.10;;;;;;6179341;28;80207;-65
2021/07/13 13:58:09;;;;;;;11.32;10.13;;;27.20;60.20;;;;;;6165833;28;83634;-65
2021/07/13 14:01:09;;;;;;;11.48;9.98;;;27.20;60.20;;;;;;6178833;28;83177;-66
2021/07/13 14:04:10;;;;;;;11.32;9.85;;;27.20;59.90;;;;;;6171034;28;84722;-67
2021/07/13 14:07:10;;;;;;;11.65;9.88;;;27.20;60.20;;;;;;6166918;28;84263;-66
2021/07/13 14:10:11;;;;;;;11.30;9.35;;;27.20;60.10;;;;;;6172315;28;83114;-66
2021/07/13 14:13:11;;;;;;;11.40;9.45;;;27.20;60.50;;;;;;6171334;28;80566;-65
2021/07/13 14:16:12;;;;;;;13.68;10.05;;;27.20;60.60;;;;;;6171078;28;80583;-65
2021/07/13 14:19:12;;;;;;;13.93;9.88;;;27.20;60.50;;;;;;6165916;28;83252;-65
2021/07/13 14:22:13;;;;;;;11.63;9.93;;;27.20;61.30;;;;;;6170177;28;83057;-66
2021/07/13 14:25:14;;;;;;;13.95;9.55;;;27.20;60.50;;;;;;6165257;28;80309;-66
2021/07/13 14:28:14;;;;;;;10.75;9.23;;;27.30;60.80;;;;;;6168589;28;80227;-67
2021/07/13 14:31:15;;;;;;;11.77;9.70;;;27.20;61.00;;;;;;6171759;28;81524;-66
2021/07/13 14:34:15;;;;;;;10.63;9.52;;;27.30;61.10;;;;;;6171841;28;81984;-67
2021/07/13 14:37:16;;;;;;;11.23;9.88;;;27.30;61.10;;;;;;6168137;28;80680;-67
2021/07/13 14:40:16;;;;;;;12.85;10.73;;;27.30;61.90;;;;;;6169493;28;80720;-66
2021/07/13 14:43:17;;;;;;;11.07;9.93;;;27.40;61.50;;;;;;6162734;28;83411;-66
2021/07/13 14:46:17;;;;;;;11.15;9.45;;;27.40;61.80;;;;;;6171775;28;82951;-67
2021/07/13 14:49:18;;;;;;;21.73;10.43;;;27.40;62.20;;;;;;6165245;28;80343;-68
2021/07/13 14:52:19;;;;;;;11.48;9.82;;;27.40;62.20;;;;;;6170848;28;82825;-67
2021/07/13 14:55:22;;;;;;;10.85;9.75;;;27.40;62.00;;;;;;6178010;28;82829;-67
2021/07/13 14:58:23;;;;;;;11.95;10.52;;;27.30;62.10;;;;;;6172780;28;82139;-67
2021/07/13 15:01:23;;;;;;;11.55;10.32;;;27.30;62.10;;;;;;6180816;28;83851;-67
2021/07/13 15:04:24;;;;;;;13.48;10.13;;;27.30;62.10;;;;;;6182386;28;83299;-68
2021/07/13 15:07:24;;;;;;;13.68;10.98;;;27.30;62.30;;;;;;6169361;28;82927;-67
2021/07/13 15:10:25;;;;;;;17.10;11.45;;;27.30;62.80;;;;;;6171231;28;83413;-68
2021/07/13 15:13:26;;;;;;;13.90;12.40;;;27.30;63.00;;;;;;6178656;28;83151;-66
2021/07/13 15:16:26;;;;;;;13.13;11.52;;;27.30;62.80;;;;;;6175091;28;83013;-66
2021/07/13 15:19:27;;;;;;;31.92;12.48;;;27.30;62.90;;;;;;6173228;28;83564;-65